Time;durP1;ratioP1;P1;durP2;ratioP2;P2;SDS_P1;SDS_P2;PMS_P1;PMS_P2;Temp;Humidity;BMP_temperature;BMP_pressure;BME280_temperature;BME280_humidity;BME280_pressure;Samples;Min_cycle;Max_cycle;Signal;HPM_P1;HPM_P2
2023/09/17 00:01:23;;;;;;;9.75;5.05;;;18.90;78.80;;;;;;4849561;29;20073;-88
2023/09/17 00:03:51;;;;;;;10.35;4.70;;;18.90;78.70;;;;;;4865021;29;20049;-88
2023/09/17 00:06:20;;;;;;;10.50;4.35;;;19.00;78.80;;;;;;4850005;29;20053;-88
2023/09/17 00:08:47;;;;;;;9.23;4.57;;;18.90;78.80;;;;;;4865032;29;20056;-88
2023/09/17 00:11:15;;;;;;;11.07;5.20;;;19.00;79.00;;;;;;4862029;29;20100;-88
2023/09/17 00:13:42;;;;;;;9.80;4.65;;;18.90;78.70;;;;;;4883146;29;20059;-88
2023/09/17 00:16:10;;;;;;;8.88;4.43;;;19.00;78.70;;;;;;4883000;29;20503;-88
2023/09/17 00:18:38;;;;;;;9.65;4.32;;;19.00;78.60;;;;;;4867983;29;20480;-88
2023/09/17 00:21:06;;;;;;;10.35;4.57;;;19.00;78.70;;;;;;4867791;29;20045;-88
2023/09/17 00:23:33;;;;;;;9.63;4.30;;;19.00;78.70;;;;;;4883148;29;20143;-88
2023/09/17 00:26:01;;;;;;;7.85;4.28;;;18.90;78.80;;;;;;4867718;29;20088;-89
2023/09/17 00:28:28;;;;;;;8.88;4.57;;;18.90;78.70;;;;;;4868152;29;20076;-88
2023/09/17 00:30:55;;;;;;;9.48;4.40;;;18.90;78.30;;;;;;4864366;29;20522;-89
2023/09/17 00:33:22;;;;;;;9.98;4.65;;;18.80;78.40;;;;;;4866944;29;20052;-89
2023/09/17 00:35:52;;;;;;;8.23;3.80;;;18.70;78.60;;;;;;4849562;29;20060;-88
2023/09/17 00:38:19;;;;;;;8.63;4.22;;;18.60;78.80;;;;;;4864649;29;20132;-88
2023/09/17 00:40:48;;;;;;;9.32;4.28;;;18.60;79.10;;;;;;4849236;29;20059;-88
2023/09/17 00:43:17;;;;;;;9.85;5.15;;;18.60;79.00;;;;;;4864176;29;20079;-89
2023/09/17 00:45:45;;;;;;;8.80;4.32;;;18.50;79.20;;;;;;4864242;29;20085;-88
2023/09/17 00:48:12;;;;;;;8.80;4.37;;;18.50;79.10;;;;;;4864127;29;20095;-88
2023/09/17 00:50:39;;;;;;;9.45;4.50;;;18.50;79.30;;;;;;4864045;29;20044;-88
2023/09/17 00:53:07;;;;;;;9.90;4.78;;;18.50;79.40;;;;;;4864186;29;20400;-88
2023/09/17 00:55:35;;;;;;;10.10;4.32;;;18.50;79.30;;;;;;4864124;29;20049;-89
2023/09/17 00:58:04;;;;;;;9.85;5.18;;;18.50;79.40;;;;;;4864002;29;20053;-88
2023/09/17 01:00:33;;;;;;;8.83;4.60;;;18.50;79.30;;;;;;4864040;29;20135;-89
2023/09/17 01:03:02;;;;;;;10.00;4.85;;;18.50;79.30;;;;;;4848891;29;20092;-88
2023/09/17 01:05:36;;;;;;;9.30;4.57;;;18.40;79.30;;;;;;4864061;29;20060;-88
2023/09/17 01:08:07;;;;;;;8.68;4.50;;;18.40;79.40;;;;;;4864138;29;20160;-89
2023/09/17 01:10:39;;;;;;;8.68;4.65;;;18.30;79.50;;;;;;4863758;29;20045;-88
2023/09/17 01:13:08;;;;;;;9.00;3.80;;;18.20;79.50;;;;;;4863913;29;20049;-89
2023/09/17 01:15:35;;;;;;;8.45;4.38;;;18.20;79.50;;;;;;4863684;29;20083;-89
2023/09/17 01:18:05;;;;;;;7.78;3.88;;;18.30;79.40;;;;;;4864122;29;20049;-89
2023/09/17 01:20:38;;;;;;;9.10;4.38;;;18.30;79.10;;;;;;4864088;29;20512;-89
2023/09/17 01:23:18;;;;;;;9.43;4.20;;;18.20;79.20;;;;;;4863725;29;20049;-88
2023/09/17 01:25:56;;;;;;;8.87;4.30;;;18.00;79.60;;;;;;4870428;29;20108;-89
2023/09/17 01:28:23;;;;;;;9.90;4.07;;;18.00;79.70;;;;;;4863585;29;20049;-88
2023/09/17 01:30:50;;;;;;;10.25;4.15;;;18.00;79.90;;;;;;4867969;29;20045;-89
2023/09/17 01:33:17;;;;;;;8.65;4.20;;;18.00;80.00;;;;;;4866928;29;20045;-89
2023/09/17 01:36:01;;;;;;;8.35;4.25;;;17.90;80.10;;;;;;4867004;29;20072;-89
2023/09/17 01:38:33;;;;;;;9.93;4.00;;;17.90;80.30;;;;;;4863522;29;20053;-89
2023/09/17 01:41:03;;;;;;;8.05;4.07;;;17.80;80.30;;;;;;4879315;29;20101;-89
2023/09/17 01:43:32;;;;;;;9.52;3.90;;;17.80;80.40;;;;;;4879094;29;20049;-89
2023/09/17 01:46:00;;;;;;;9.60;4.25;;;17.70;80.30;;;;;;4879205;29;20053;-89
2023/09/17 01:48:28;;;;;;;7.97;4.05;;;17.80;80.40;;;;;;4879290;29;20080;-89
2023/09/17 01:50:56;;;;;;;9.97;4.73;;;17.70;80.50;;;;;;4878832;29;20057;-89
2023/09/17 01:53:24;;;;;;;8.63;4.32;;;17.70;80.40;;;;;;4863643;29;20084;-87
2023/09/17 01:55:52;;;;;;;9.48;4.22;;;17.70;80.60;;;;;;4879101;29;20049;-88
2023/09/17 01:58:21;;;;;;;8.98;3.88;;;17.60;80.50;;;;;;4880712;29;20091;-89
2023/09/17 02:00:52;;;;;;;9.77;4.05;;;17.70;80.40;;;;;;4882552;29;20053;-89
2023/09/17 02:03:19;;;;;;;10.00;4.10;;;17.70;80.20;;;;;;4882507;29;20065;-89
2023/09/17 02:05:47;;;;;;;9.80;3.78;;;17.60;80.20;;;;;;4882384;29;20045;-89
2023/09/17 02:08:14;;;;;;;9.02;4.72;;;17.60;80.30;;;;;;4882361;29;20057;-89
2023/09/17 02:10:41;;;;;;;9.02;4.35;;;17.60;80.30;;;;;;4866904;29;20068;-89
2023/09/17 02:13:08;;;;;;;10.65;4.30;;;17.60;80.40;;;;;;4882476;29;20415;-88
2023/09/17 02:15:35;;;;;;;9.67;4.33;;;17.50;80.40;;;;;;4882313;29;20155;-89
2023/09/17 02:18:03;;;;;;;9.27;4.50;;;17.50;80.50;;;;;;4882239;29;20136;-89
2023/09/17 02:20:31;;;;;;;10.07;4.40;;;17.60;80.40;;;;;;4882438;29;20064;-89
2023/09/17 02:22:58;;;;;;;8.45;3.90;;;17.60;80.20;;;;;;4883433;29;20053;-88
2023/09/17 02:25:25;;;;;;;12.45;4.03;;;17.60;80.40;;;;;;4869770;29;20060;-88
2023/09/17 02:27:52;;;;;;;8.97;3.90;;;17.70;80.40;;;;;;4869980;29;20056;-88
2023/09/17 02:30:19;;;;;;;7.60;3.80;;;17.80;80.40;;;;;;4869996;29;20511;-89
2023/09/17 02:32:46;;;;;;;8.40;4.07;;;17.80;80.30;;;;;;4869749;29;20136;-89
2023/09/17 02:35:13;;;;;;;9.23;4.00;;;17.80;80.00;;;;;;4869570;29;20661;-89
2023/09/17 02:37:40;;;;;;;8.98;4.38;;;17.80;80.10;;;;;;4869629;29;20051;-89
2023/09/17 02:40:09;;;;;;;8.20;3.60;;;17.90;80.10;;;;;;4869584;29;20047;-88
2023/09/17 02:42:40;;;;;;;7.63;3.75;;;17.80;80.20;;;;;;4856872;29;20045;-88
2023/09/17 02:45:08;;;;;;;8.15;3.83;;;17.80;80.50;;;;;;4866152;29;20176;-88
2023/09/17 02:47:36;;;;;;;8.18;3.60;;;17.70;80.40;;;;;;4851154;29;20045;-89
2023/09/17 02:50:04;;;;;;;9.02;3.90;;;17.80;80.40;;;;;;4866213;29;20132;-88
2023/09/17 02:52:32;;;;;;;8.57;3.97;;;17.80;80.50;;;;;;4866382;29;20109;-88
2023/09/17 02:54:59;;;;;;;7.60;3.85;;;17.80;80.40;;;;;;4881075;29;20049;-89
2023/09/17 02:57:26;;;;;;;7.00;3.22;;;17.80;80.40;;;;;;4869230;29;20057;-89
2023/09/17 02:59:53;;;;;;;8.02;3.70;;;17.80;80.10;;;;;;4870554;29;20076;-89
2023/09/17 03:02:21;;;;;;;8.85;3.67;;;17.80;80.00;;;;;;4865904;29;20048;-88
2023/09/17 03:04:51;;;;;;;8.00;3.63;;;17.80;80.00;;;;;;4866431;29;20064;-88
2023/09/17 03:07:19;;;;;;;9.55;3.45;;;17.90;79.90;;;;;;4865926;29;20058;-89
2023/09/17 03:09:46;;;;;;;7.95;3.63;;;17.90;79.80;;;;;;4866113;29;20071;-89
2023/09/17 03:12:13;;;;;;;6.82;3.13;;;17.90;79.50;;;;;;4881453;29;20423;-89
2023/09/17 03:14:41;;;;;;;7.32;3.25;;;17.90;79.50;;;;;;4869259;29;20040;-89
2023/09/17 03:17:09;;;;;;;6.33;3.20;;;17.90;79.70;;;;;;4884225;29;20052;-89
2023/09/17 03:19:38;;;;;;;7.88;3.65;;;18.00;79.50;;;;;;4884412;29;20477;-89
2023/09/17 03:22:06;;;;;;;10.10;3.63;;;18.00;79.50;;;;;;4876742;29;20045;-89
2023/09/17 03:24:34;;;;;;;7.82;3.55;;;17.90;79.50;;;;;;4884264;29;20077;-89
2023/09/17 03:27:01;;;;;;;9.70;3.42;;;17.90;79.60;;;;;;4868947;29;20147;-89
2023/09/17 03:29:28;;;;;;;7.47;3.80;;;17.90;79.70;;;;;;4868698;29;20051;-89
2023/09/17 03:31:56;;;;;;;7.65;3.20;;;17.90;79.70;;;;;;4868834;29;20049;-89
2023/09/17 03:34:23;;;;;;;9.27;3.60;;;17.90;79.50;;;;;;4868705;29;20045;-89
2023/09/17 03:36:50;;;;;;;7.53;3.53;;;17.90;79.60;;;;;;4868634;29;20060;-89
2023/09/17 03:39:18;;;;;;;8.10;3.50;;;17.90;79.70;;;;;;4884112;29;20108;-89
2023/09/17 03:41:45;;;;;;;7.30;3.30;;;17.80;79.80;;;;;;4868430;29;20052;-89
2023/09/17 03:44:14;;;;;;;6.80;3.20;;;17.80;79.70;;;;;;4868536;29;20049;-89
2023/09/17 03:46:41;;;;;;;8.68;3.60;;;17.80;79.80;;;;;;4883638;29;20049;-89
2023/09/17 03:49:09;;;;;;;7.90;3.90;;;17.80;80.00;;;;;;4883775;29;20594;-88
2023/09/17 03:51:36;;;;;;;8.18;4.00;;;17.80;80.00;;;;;;4883614;29;20097;-88
2023/09/17 03:54:04;;;;;;;9.17;3.77;;;17.80;80.00;;;;;;4868424;29;20045;-88
2023/09/17 03:56:31;;;;;;;8.27;3.65;;;17.80;79.90;;;;;;4861561;29;20045;-89
2023/09/17 03:58:59;;;;;;;7.35;3.60;;;17.80;80.00;;;;;;4864933;29;20045;-89
2023/09/17 04:01:27;;;;;;;8.77;4.07;;;17.80;80.10;;;;;;4864980;29;20056;-88
2023/09/17 04:03:56;;;;;;;7.10;3.67;;;17.80;80.00;;;;;;4849884;29;20101;-88
2023/09/17 04:06:23;;;;;;;7.77;3.60;;;17.80;80.10;;;;;;4864794;29;20059;-89
2023/09/17 04:08:50;;;;;;;7.53;3.63;;;17.80;80.10;;;;;;4867698;29;20055;-89
2023/09/17 04:11:17;;;;;;;8.77;3.72;;;17.70;80.20;;;;;;4867827;29;20072;-89
2023/09/17 04:13:45;;;;;;;7.60;3.90;;;17.70;80.20;;;;;;4868178;29;20408;-89
2023/09/17 04:16:12;;;;;;;7.80;3.83;;;17.80;80.20;;;;;;4880905;29;20072;-89
2023/09/17 04:18:40;;;;;;;6.67;3.20;;;17.70;80.20;;;;;;4849435;29;20040;-88
2023/09/17 04:21:07;;;;;;;7.53;3.50;;;17.70;80.10;;;;;;4865131;29;20063;-89
2023/09/17 04:23:34;;;;;;;8.55;3.75;;;17.70;80.10;;;;;;4867781;29;20053;-88
2023/09/17 04:26:01;;;;;;;9.32;4.00;;;17.80;80.20;;;;;;4867924;29;20049;-89
2023/09/17 04:28:28;;;;;;;7.97;3.67;;;17.80;80.20;;;;;;4868100;29;20056;-88
2023/09/17 04:30:56;;;;;;;8.67;3.57;;;17.80;80.10;;;;;;4871283;29;20566;-88
2023/09/17 04:33:23;;;;;;;9.48;3.83;;;17.80;80.20;;;;;;4849061;29;20057;-89
2023/09/17 04:35:56;;;;;;;8.85;4.10;;;17.80;80.20;;;;;;4864273;29;20461;-88
2023/09/17 04:38:23;;;;;;;7.45;3.72;;;17.80;80.10;;;;;;4864429;29;20575;-88
2023/09/17 04:40:51;;;;;;;8.07;3.58;;;17.80;80.10;;;;;;4849099;29;20508;-88
2023/09/17 04:43:20;;;;;;;7.73;3.67;;;17.80;80.00;;;;;;4864007;29;20049;-88
2023/09/17 04:45:47;;;;;;;9.48;3.72;;;17.90;79.90;;;;;;4849439;29;20097;-88
2023/09/17 04:48:25;;;;;;;7.45;3.55;;;17.90;79.90;;;;;;4880309;29;20059;-88
2023/09/17 04:50:52;;;;;;;7.45;3.50;;;17.90;79.80;;;;;;4882713;29;20044;-88
2023/09/17 04:53:20;;;;;;;7.93;3.13;;;17.90;79.90;;;;;;4867631;29;20045;-89
2023/09/17 04:55:48;;;;;;;7.00;3.73;;;17.90;79.90;;;;;;4882775;29;20053;-88
2023/09/17 04:58:19;;;;;;;6.95;3.33;;;18.00;79.90;;;;;;4864501;29;20110;-88
2023/09/17 05:00:48;;;;;;;8.05;3.95;;;18.00;79.60;;;;;;4864079;29;20140;-89
2023/09/17 05:03:16;;;;;;;7.65;3.47;;;18.00;79.70;;;;;;4863939;29;20136;-88
2023/09/17 05:05:43;;;;;;;8.57;3.70;;;18.00;79.70;;;;;;4863865;29;20052;-89
2023/09/17 05:08:11;;;;;;;7.23;3.47;;;18.00;79.50;;;;;;4864113;29;20129;-88
2023/09/17 05:10:38;;;;;;;7.70;3.22;;;18.00;79.50;;;;;;4863874;29;20045;-88
2023/09/17 05:13:06;;;;;;;8.25;3.60;;;18.00;79.40;;;;;;4864040;29;20052;-88
2023/09/17 05:15:34;;;;;;;9.18;3.50;;;18.10;79.50;;;;;;4867634;29;20053;-88
2023/09/17 05:18:07;;;;;;;7.15;3.67;;;18.00;79.50;;;;;;4863914;29;20049;-88
2023/09/17 05:20:36;;;;;;;7.87;3.37;;;18.10;79.50;;;;;;4867469;29;20137;-89
2023/09/17 05:23:03;;;;;;;7.35;3.50;;;18.10;79.50;;;;;;4882345;29;20058;-88
2023/09/17 05:25:32;;;;;;;6.75;3.42;;;18.20;79.30;;;;;;4848507;29;20049;-88
2023/09/17 05:27:59;;;;;;;7.60;3.25;;;18.20;79.10;;;;;;4863674;29;20101;-89
2023/09/17 05:30:26;;;;;;;9.60;3.58;;;18.20;79.20;;;;;;4864007;29;20053;-89
2023/09/17 05:32:53;;;;;;;8.30;3.23;;;18.30;79.00;;;;;;4864870;29;20049;-88
2023/09/17 05:35:20;;;;;;;7.30;3.40;;;18.30;78.90;;;;;;4852246;29;20056;-89
2023/09/17 05:37:48;;;;;;;6.97;3.15;;;18.30;78.80;;;;;;4867184;29;20482;-88
2023/09/17 05:40:15;;;;;;;6.97;3.28;;;18.40;78.70;;;;;;4852320;29;20045;-89
2023/09/17 05:42:43;;;;;;;7.70;3.08;;;18.40;78.70;;;;;;4867298;29;20057;-88
2023/09/17 05:45:10;;;;;;;8.10;3.17;;;18.50;78.90;;;;;;4867371;29;20097;-89
2023/09/17 05:47:41;;;;;;;7.50;3.10;;;18.50;78.60;;;;;;4867628;29;20125;-88
2023/09/17 05:50:09;;;;;;;6.72;3.22;;;18.50;78.40;;;;;;4851738;29;20045;-88
2023/09/17 05:52:37;;;;;;;7.50;3.22;;;18.50;78.60;;;;;;4867341;29;20420;-88
2023/09/17 05:55:05;;;;;;;7.65;3.45;;;18.50;78.70;;;;;;4866971;29;20097;-88
2023/09/17 05:57:33;;;;;;;6.80;3.23;;;18.60;78.50;;;;;;4867225;29;20108;-88
2023/09/17 06:00:03;;;;;;;8.73;3.30;;;18.70;78.40;;;;;;4867061;29;20065;-89
2023/09/17 06:02:40;;;;;;;9.07;3.45;;;18.70;77.90;;;;;;4868624;29;20140;-89
2023/09/17 06:05:10;;;;;;;8.00;3.22;;;18.80;78.00;;;;;;4866933;29;20049;-88
2023/09/17 06:07:37;;;;;;;7.65;3.08;;;18.90;77.80;;;;;;4851933;29;20049;-88
2023/09/17 06:10:05;;;;;;;7.17;3.27;;;18.90;77.60;;;;;;4870329;29;20064;-88
2023/09/17 06:12:32;;;;;;;7.13;3.40;;;19.00;77.10;;;;;;4869967;29;20515;-88
2023/09/17 06:15:00;;;;;;;6.78;3.03;;;19.00;77.20;;;;;;4870483;29;20078;-89
2023/09/17 06:17:27;;;;;;;9.70;3.20;;;19.10;76.90;;;;;;4884965;29;20139;-89
2023/09/17 06:19:55;;;;;;;8.32;3.40;;;19.20;77.10;;;;;;4870099;29;20044;-88
2023/09/17 06:22:23;;;;;;;7.57;3.13;;;19.20;76.70;;;;;;4869925;29;20152;-88
2023/09/17 06:24:51;;;;;;;8.07;3.63;;;19.30;76.40;;;;;;4885381;29;20079;-88
2023/09/17 06:27:18;;;;;;;5.93;2.78;;;19.20;76.00;;;;;;4869786;29;20049;-89
2023/09/17 06:29:45;;;;;;;6.13;3.10;;;19.20;76.20;;;;;;4885173;29;20492;-89
2023/09/17 06:32:12;;;;;;;7.18;3.30;;;19.20;76.20;;;;;;4869665;29;20044;-89
2023/09/17 06:34:40;;;;;;;6.47;2.90;;;19.20;76.20;;;;;;4869687;29;20097;-89
2023/09/17 06:37:08;;;;;;;9.57;2.80;;;19.20;76.50;;;;;;4869595;29;20044;-88
2023/09/17 06:39:35;;;;;;;12.70;2.92;;;19.20;76.40;;;;;;4884910;29;20059;-88
2023/09/17 06:42:03;;;;;;;8.27;3.45;;;19.30;76.50;;;;;;4870002;29;20104;-89
2023/09/17 06:44:30;;;;;;;8.27;3.17;;;19.30;76.30;;;;;;4859936;29;20136;-88
2023/09/17 06:46:57;;;;;;;7.53;3.23;;;19.30;76.50;;;;;;4866442;29;20531;-88
2023/09/17 06:49:24;;;;;;;6.93;3.00;;;19.30;76.30;;;;;;4878131;29;20104;-88
2023/09/17 06:51:54;;;;;;;8.75;3.00;;;19.30;76.50;;;;;;4869419;29;20073;-88
2023/09/17 06:54:21;;;;;;;7.00;3.00;;;19.40;76.50;;;;;;4884877;29;20499;-88
2023/09/17 06:56:48;;;;;;;6.45;2.80;;;19.50;76.00;;;;;;4869483;29;21016;-88
2023/09/17 06:59:15;;;;;;;8.50;3.10;;;19.50;76.40;;;;;;4862949;29;20409;-88
2023/09/17 07:01:45;;;;;;;6.32;2.80;;;19.50;76.20;;;;;;4850687;29;20402;-88
2023/09/17 07:04:12;;;;;;;6.78;2.60;;;19.60;76.30;;;;;;4872240;29;20048;-88
2023/09/17 07:06:39;;;;;;;8.05;3.15;;;19.70;76.30;;;;;;4869176;29;20048;-88
2023/09/17 07:09:07;;;;;;;6.88;3.22;;;19.80;76.00;;;;;;4884465;29;20573;-88
2023/09/17 07:11:35;;;;;;;7.00;3.23;;;19.80;75.70;;;;;;4868874;29;20052;-88
2023/09/17 07:14:08;;;;;;;5.95;2.78;;;19.90;76.10;;;;;;4869220;29;20055;-88
2023/09/17 07:16:37;;;;;;;6.13;2.97;;;20.00;75.20;;;;;;4883098;29;20415;-88
2023/09/17 07:19:05;;;;;;;5.68;2.85;;;20.00;74.70;;;;;;4865852;29;20060;-88
2023/09/17 07:21:32;;;;;;;6.00;2.97;;;20.10;74.60;;;;;;4877472;29;20499;-88
2023/09/17 07:23:59;;;;;;;5.87;2.47;;;20.10;74.70;;;;;;4884493;29;20044;-89
2023/09/17 07:26:27;;;;;;;6.63;2.80;;;20.30;73.90;;;;;;4865587;29;20499;-88
2023/09/17 07:28:54;;;;;;;8.70;3.22;;;20.30;74.40;;;;;;4865581;29;20452;-88
2023/09/17 07:31:21;;;;;;;7.13;2.90;;;20.30;74.80;;;;;;4865515;29;20048;-88
2023/09/17 07:33:49;;;;;;;6.20;2.58;;;20.40;73.90;;;;;;4865323;29;20053;-89
2023/09/17 07:36:16;;;;;;;8.23;2.53;;;20.40;74.00;;;;;;4865567;29;20084;-89
2023/09/17 07:38:43;;;;;;;6.03;2.47;;;20.40;73.80;;;;;;4865252;29;20480;-88
2023/09/17 07:41:10;;;;;;;5.65;2.70;;;20.50;73.20;;;;;;4865460;29;20049;-88
2023/09/17 07:43:37;;;;;;;5.78;2.20;;;20.50;73.80;;;;;;4865304;29;20537;-88
2023/09/17 07:46:05;;;;;;;6.35;3.00;;;20.50;73.00;;;;;;4865393;29;20045;-89
2023/09/17 07:48:32;;;;;;;6.10;2.50;;;20.50;72.80;;;;;;4865241;29;20059;-89
2023/09/17 07:51:00;;;;;;;5.63;2.30;;;20.60;72.80;;;;;;4849969;29;20052;-89
2023/09/17 07:53:28;;;;;;;6.88;2.50;;;20.60;72.60;;;;;;4865182;29;20120;-89
2023/09/17 07:55:56;;;;;;;5.05;2.33;;;20.70;72.10;;;;;;4864216;29;20055;-88
2023/09/17 07:58:23;;;;;;;5.60;2.70;;;20.90;71.60;;;;;;4874377;29;20495;-88
2023/09/17 08:00:50;;;;;;;5.93;2.73;;;21.10;71.70;;;;;;4868291;29;20074;-88
2023/09/17 08:03:18;;;;;;;7.47;2.70;;;21.10;70.90;;;;;;4867331;29;20048;-89
2023/09/17 08:05:47;;;;;;;6.38;2.33;;;21.10;70.20;;;;;;4864925;29;20063;-88
2023/09/17 08:08:17;;;;;;;6.55;2.85;;;21.20;70.60;;;;;;4865061;29;20049;-89
2023/09/17 08:10:44;;;;;;;5.50;2.45;;;21.20;70.80;;;;;;4864916;29;20057;-88
2023/09/17 08:13:12;;;;;;;6.07;2.30;;;21.40;70.80;;;;;;4864659;29;20580;-89
2023/09/17 08:15:39;;;;;;;6.88;2.40;;;21.40;70.20;;;;;;4864680;29;20049;-88
2023/09/17 08:18:06;;;;;;;6.25;2.50;;;21.60;70.60;;;;;;4864497;29;20056;-89
2023/09/17 08:20:33;;;;;;;5.43;2.50;;;21.70;70.20;;;;;;4864748;29;20049;-88
2023/09/17 08:23:00;;;;;;;5.95;2.30;;;21.80;68.70;;;;;;4864598;29;20049;-89
2023/09/17 08:25:30;;;;;;;6.43;2.50;;;21.80;69.20;;;;;;4873517;29;20586;-88
2023/09/17 08:27:58;;;;;;;7.40;2.80;;;21.70;69.50;;;;;;4867692;29;20055;-88
2023/09/17 08:30:26;;;;;;;6.80;2.50;;;21.70;69.50;;;;;;4867841;29;20053;-88
2023/09/17 08:32:53;;;;;;;5.78;2.30;;;21.80;69.20;;;;;;4867581;29;20049;-89
2023/09/17 08:35:20;;;;;;;6.10;2.58;;;21.90;68.50;;;;;;4867489;29;20392;-89
2023/09/17 08:37:49;;;;;;;7.57;2.80;;;22.00;68.30;;;;;;4867564;29;20048;-88
2023/09/17 08:40:19;;;;;;;6.20;2.58;;;22.10;68.40;;;;;;4867667;29;20511;-89
2023/09/17 08:42:48;;;;;;;7.15;2.92;;;22.20;68.70;;;;;;4882899;29;20056;-89
2023/09/17 08:45:16;;;;;;;8.73;2.65;;;22.40;67.90;;;;;;4867446;29;20045;-89
2023/09/17 08:47:43;;;;;;;6.35;2.50;;;22.40;68.50;;;;;;4867452;29;20052;-89
2023/09/17 08:50:10;;;;;;;5.80;2.40;;;22.60;67.60;;;;;;4853909;29;20049;-88
2023/09/17 08:52:43;;;;;;;6.30;2.67;;;22.60;66.50;;;;;;4864140;29;20077;-89
2023/09/17 08:55:16;;;;;;;5.78;2.60;;;22.60;67.10;;;;;;4864082;29;20052;-88
2023/09/17 08:57:53;;;;;;;6.53;2.55;;;22.60;67.60;;;;;;4864415;29;20045;-89
2023/09/17 09:00:22;;;;;;;6.35;2.55;;;22.80;67.30;;;;;;4863894;29;20484;-88
2023/09/17 09:02:54;;;;;;;4.93;2.30;;;23.00;66.80;;;;;;4848835;29;20092;-89
2023/09/17 09:05:25;;;;;;;7.22;2.50;;;23.00;65.00;;;;;;4882000;29;20052;-88
2023/09/17 09:07:55;;;;;;;6.25;2.60;;;23.10;66.20;;;;;;4882614;29;20057;-89
2023/09/17 09:10:24;;;;;;;6.63;2.42;;;23.30;65.20;;;;;;4882552;29;20411;-89
2023/09/17 09:12:51;;;;;;;6.22;2.40;;;23.50;65.30;;;;;;4867144;29;20048;-89
2023/09/17 09:15:18;;;;;;;5.63;2.27;;;23.70;66.00;;;;;;4866944;29;20053;-89
2023/09/17 09:17:46;;;;;;;6.80;2.72;;;23.80;62.30;;;;;;4867237;29;20052;-88
2023/09/17 09:20:18;;;;;;;7.57;2.53;;;23.90;63.00;;;;;;4882290;29;20048;-89
2023/09/17 09:22:45;;;;;;;6.90;2.67;;;24.00;62.90;;;;;;4866981;29;20059;-89
2023/09/17 09:25:18;;;;;;;6.03;2.53;;;24.10;61.90;;;;;;4867018;29;20052;-89
2023/09/17 09:27:46;;;;;;;6.73;3.00;;;24.30;61.70;;;;;;4882452;29;20507;-89
2023/09/17 09:30:15;;;;;;;7.15;3.15;;;24.50;61.50;;;;;;4866873;29;20044;-88
2023/09/17 09:32:43;;;;;;;8.20;2.67;;;24.60;61.80;;;;;;4865405;29;20414;-89
2023/09/17 09:35:11;;;;;;;11.10;2.20;;;24.60;61.90;;;;;;4867166;29;20049;-88
2023/09/17 09:37:39;;;;;;;7.88;2.60;;;24.60;59.60;;;;;;4882300;29;20111;-88
2023/09/17 09:40:06;;;;;;;8.83;2.77;;;24.60;60.10;;;;;;4866910;29;20071;-88
2023/09/17 09:42:33;;;;;;;11.43;2.42;;;24.70;61.00;;;;;;4866778;29;20100;-88
2023/09/17 09:45:03;;;;;;;11.82;2.40;;;24.60;60.00;;;;;;4867095;29;20076;-89
2023/09/17 09:47:30;;;;;;;7.10;2.60;;;24.60;60.20;;;;;;4866712;29;20052;-89
2023/09/17 09:49:58;;;;;;;8.55;2.22;;;24.40;57.90;;;;;;4882234;29;20530;-88
2023/09/17 09:52:25;;;;;;;7.17;2.00;;;24.40;59.10;;;;;;4866763;29;20052;-89
2023/09/17 09:54:52;;;;;;;7.78;2.10;;;24.40;58.10;;;;;;4880507;29;20048;-88
2023/09/17 09:57:20;;;;;;;4.80;1.90;;;24.50;58.30;;;;;;4848210;29;20118;-88
2023/09/17 09:59:48;;;;;;;6.68;1.92;;;24.60;58.40;;;;;;4863473;29;20045;-88
2023/09/17 10:02:17;;;;;;;4.80;1.92;;;24.50;58.30;;;;;;4863487;29;20053;-89
2023/09/17 10:04:45;;;;;;;4.50;1.90;;;24.50;58.50;;;;;;4863400;29;20081;-89
2023/09/17 10:07:16;;;;;;;4.97;1.80;;;24.30;57.60;;;;;;4863577;29;20053;-88
2023/09/17 10:09:44;;;;;;;6.07;1.92;;;24.20;58.40;;;;;;4873485;29;20104;-89
2023/09/17 10:12:49;;;;;;;4.10;1.80;;;24.30;58.50;;;;;;4866567;29;20112;-88
2023/09/17 10:15:55;;;;;;;4.53;1.75;;;24.50;59.40;;;;;;4886309;29;20059;-88
2023/09/17 10:18:26;;;;;;;7.73;2.67;;;24.50;57.30;;;;;;4863824;29;20427;-88
2023/09/17 10:20:54;;;;;;;5.20;2.03;;;24.50;57.50;;;;;;4866792;29;20041;-89
2023/09/17 10:23:23;;;;;;;6.82;2.10;;;24.60;58.40;;;;;;4851738;29;20044;-89
2023/09/17 10:25:52;;;;;;;4.95;1.80;;;24.80;57.10;;;;;;4866441;29;20064;-89
2023/09/17 10:28:21;;;;;;;6.20;2.00;;;24.80;56.40;;;;;;4866515;29;20104;-88
2023/09/17 10:30:51;;;;;;;5.43;2.07;;;24.60;56.40;;;;;;4866555;29;20060;-88
2023/09/17 10:33:18;;;;;;;4.13;1.90;;;24.60;57.30;;;;;;4851293;29;20041;-88
2023/09/17 10:35:48;;;;;;;4.97;1.90;;;24.60;57.90;;;;;;4851228;29;20052;-88
2023/09/17 10:38:18;;;;;;;5.05;1.73;;;24.80;59.00;;;;;;4866388;29;20045;-88
2023/09/17 10:40:45;;;;;;;5.13;1.90;;;25.00;58.60;;;;;;4867575;29;20041;-88
2023/09/17 10:43:13;;;;;;;4.23;1.80;;;25.10;59.10;;;;;;4868958;29;20056;-88
2023/09/17 10:45:41;;;;;;;5.45;1.58;;;25.10;58.90;;;;;;4866473;29;20063;-88
2023/09/17 10:48:09;;;;;;;4.30;1.92;;;25.10;57.70;;;;;;4851224;29;20049;-88
2023/09/17 10:50:38;;;;;;;5.47;2.30;;;25.00;58.30;;;;;;4866313;29;20049;-88
2023/09/17 10:53:05;;;;;;;5.05;1.80;;;24.90;59.40;;;;;;4850958;29;20045;-89
2023/09/17 10:55:41;;;;;;;4.77;2.10;;;24.90;57.00;;;;;;4866251;29;20053;-88
2023/09/17 10:58:19;;;;;;;5.75;2.30;;;24.90;58.10;;;;;;4873549;29;20049;-88
2023/09/17 11:00:48;;;;;;;5.22;1.67;;;25.10;58.00;;;;;;4872343;29;20064;-88
2023/09/17 11:03:19;;;;;;;6.15;2.00;;;25.30;57.80;;;;;;4851014;29;20048;-88
2023/09/17 11:05:48;;;;;;;6.80;2.20;;;25.60;55.30;;;;;;4866094;29;20059;-88
2023/09/17 11:08:17;;;;;;;5.60;2.00;;;25.80;56.10;;;;;;4881650;29;20052;-88
2023/09/17 11:10:45;;;;;;;4.68;1.90;;;26.00;54.50;;;;;;4869177;29;20049;-88
2023/09/17 11:13:13;;;;;;;4.00;2.08;;;26.00;54.20;;;;;;4884296;29;20055;-89
2023/09/17 11:15:44;;;;;;;6.88;2.50;;;26.10;55.00;;;;;;4872461;29;20055;-89
2023/09/17 11:18:12;;;;;;;8.15;3.03;;;26.20;54.00;;;;;;4884442;29;20055;-88
2023/09/17 11:21:00;;;;;;;7.07;2.40;;;26.20;53.10;;;;;;4854732;29;20412;-88
2023/09/17 11:23:37;;;;;;;7.55;2.90;;;26.10;53.30;;;;;;4865622;29;20057;-89
2023/09/17 11:26:05;;;;;;;5.50;2.20;;;26.00;53.20;;;;;;4865466;29;20152;-88
2023/09/17 11:28:38;;;;;;;5.25;2.00;;;26.00;53.70;;;;;;4863167;29;20059;-88
2023/09/17 11:31:14;;;;;;;5.55;2.20;;;25.80;55.60;;;;;;4893300;29;20403;-88
2023/09/17 11:33:43;;;;;;;5.93;2.20;;;25.60;56.50;;;;;;4868895;29;20393;-88
2023/09/17 11:36:10;;;;;;;4.85;2.00;;;25.50;55.70;;;;;;4876252;29;20056;-88
2023/09/17 11:38:37;;;;;;;5.75;2.33;;;25.50;57.10;;;;;;4868470;29;20468;-88
2023/09/17 11:41:04;;;;;;;5.15;2.20;;;25.60;57.00;;;;;;4878702;29;20110;-88
2023/09/17 11:43:34;;;;;;;4.53;1.90;;;25.80;54.80;;;;;;4880839;29;20061;-88
2023/09/17 11:46:07;;;;;;;5.93;1.70;;;26.10;54.10;;;;;;4880650;29;20053;-88
2023/09/17 11:48:37;;;;;;;4.72;1.70;;;26.40;53.70;;;;;;4880738;29;20086;-88
2023/09/17 11:51:27;;;;;;;5.20;1.92;;;26.60;53.30;;;;;;4874402;29;20080;-88
2023/09/17 11:54:15;;;;;;;4.50;2.00;;;26.60;52.70;;;;;;4868612;29;20140;-88
2023/09/17 11:56:49;;;;;;;4.85;1.92;;;26.40;51.90;;;;;;4868289;29;20103;-89
2023/09/17 11:59:17;;;;;;;3.97;1.73;;;26.40;49.90;;;;;;4850660;29;20149;-88
2023/09/17 12:01:56;;;;;;;5.63;1.92;;;26.50;51.10;;;;;;4868753;29;20140;-88
2023/09/17 12:04:30;;;;;;;3.60;1.67;;;26.60;50.90;;;;;;4864886;29;20144;-87
2023/09/17 12:06:58;;;;;;;5.80;2.05;;;26.80;50.50;;;;;;4865039;29;20151;-88
2023/09/17 12:10:04;;;;;;;4.50;1.90;;;27.00;50.10;;;;;;4849471;29;20059;-88
2023/09/17 12:12:34;;;;;;;4.73;2.00;;;27.10;51.20;;;;;;4848807;29;20053;-88
2023/09/17 12:15:06;;;;;;;4.72;2.00;;;27.10;51.20;;;;;;4868179;29;20052;-88
2023/09/17 12:17:34;;;;;;;5.88;1.92;;;27.10;48.80;;;;;;4883393;29;20057;-88
2023/09/17 12:20:59;;;;;;;5.95;1.90;;;27.10;49.50;;;;;;4880061;29;20068;-87
2023/09/17 12:29:58;;;;;;;4.60;1.70;;;27.30;48.80;;;;;;4853230;29;20077;-88
2023/09/17 12:32:27;;;;;;;14.82;2.95;;;27.10;47.90;;;;;;4864409;29;20520;-88
2023/09/17 12:34:56;;;;;;;5.25;2.05;;;27.10;49.30;;;;;;4864397;29;20100;-88
2023/09/17 12:40:47;;;;;;;6.60;2.23;;;27.10;50.70;;;;;;4885746;29;20133;-88
2023/09/17 12:43:15;;;;;;;5.28;2.45;;;27.40;49.30;;;;;;4867350;29;20091;-88
2023/09/17 12:45:43;;;;;;;5.38;2.25;;;27.60;48.20;;;;;;4882915;29;20053;-88
2023/09/17 12:48:10;;;;;;;5.43;1.98;;;27.60;48.40;;;;;;4867640;29;20551;-88
2023/09/17 12:50:38;;;;;;;5.70;2.92;;;27.50;48.90;;;;;;4861069;29;20060;-88
2023/09/17 12:53:05;;;;;;;5.57;2.20;;;27.50;49.70;;;;;;4864130;29;20567;-88
2023/09/17 12:55:33;;;;;;;6.35;2.20;;;27.40;48.80;;;;;;4852468;29;20466;-88
2023/09/17 12:58:10;;;;;;;6.90;2.38;;;27.20;49.10;;;;;;4873367;29;20054;-89
2023/09/17 13:00:37;;;;;;;6.50;2.60;;;26.90;49.60;;;;;;4880220;29;20407;-88
2023/09/17 13:03:09;;;;;;;5.53;2.17;;;26.60;50.10;;;;;;4865900;29;20048;-88
2023/09/17 13:05:37;;;;;;;5.63;2.27;;;26.60;50.70;;;;;;4865437;29;20535;-88